Portada
METAR-TAF:

METAR-TAF

Aeroports :

Maun, Botswana

latitud: 19-59S, longitud: 023-25E, altitud: 945 m

Observació

L'informe es va fer fa 1 hora i 20 minuts, a les 03:00 UTC
Vent 7 kt del Sud-Est
Temperatura 13°C
Humitat 67%
Pressió 1026 hPa
Visibilitat 10 km o més
sense núvols per sota de 1500 mi sense presència de cumulonimbus.

METAR: FBMN 250300Z 13007KT CAVOK 13/07 Q1026

Hora: 06:20 (04:20 UTC)

Pronòstic

L'informe es va fer fa 6 hores i 20 minuts, a les 22:00 UTC
Pronòstic vàlid del 25 a les 00 UTC al 25 a les 24 UTC
Vent 8 kt del Est/Sud-Est
Visibilitat 10 km o més
sense núvols per sota de 1500 mi sense presència de cumulonimbus.

TAF: FBMN 242200Z 2500/2524 12008KT CAVOK

Observacions i pronòstics meteorològics de més de 4000 aeroports (METAR i TAF).

Les estacions disponibles són els punts grocs i vermells al mapa.

Posi el ratolí al punt desitjat per veure el nom de l'estació.

Feu clic per veure les observacions i els pronòstics meteorològics.

Per canviar el mapa: feu clic els botons verds amb una creu de color negre per apropar; al botó verd amb un guió per allunyar la imatge; o en les fletxes verdes per a mapes adjacents.


METAR-TAF: